Time;durP1;ratioP1;P1;durP2;ratioP2;P2;SDS_P1;SDS_P2;PMS_P1;PMS_P2;Temp;Humidity;BMP_temperature;BMP_pressure;BME280_temperature;BME280_humidity;BME280_pressure;Samples;Min_cycle;Max_cycle;Signal;HPM_P1;HPM_P2
2023/06/23 00:00:33;;;;;;;13.05;5.55;;;;;;;-142.75;100.00;76576.19;5047293;28;20120;-64
2023/06/23 00:02:58;;;;;;;12.02;6.22;;;;;;;-142.75;100.00;76588.00;5046696;28;20021;-64
2023/06/23 00:05:25;;;;;;;12.65;6.88;;;;;;;-142.75;100.00;76578.16;5047290;28;20103;-63
2023/06/23 00:07:51;;;;;;;10.35;6.60;;;;;;;-142.75;100.00;76570.28;5046496;28;20021;-64
2023/06/23 00:10:16;;;;;;;15.93;7.50;;;;;;;-142.75;100.00;76564.38;5047066;28;20039;-64
2023/06/23 00:12:41;;;;;;;11.90;7.50;;;;;;;-142.75;100.00;76570.28;5047438;28;20017;-64
2023/06/23 00:15:12;;;;;;;14.70;7.80;;;;;;;-142.75;100.00;76554.53;5046804;28;20410;-63
2023/06/23 00:17:39;;;;;;;15.35;7.30;;;;;;;-142.75;100.00;76562.41;5047075;28;20685;-63
2023/06/23 00:20:13;;;;;;;13.55;7.97;;;;;;;-142.75;100.00;76562.41;5046639;28;20554;-65
2023/06/23 00:22:40;;;;;;;14.15;8.80;;;;;;;-142.75;100.00;76574.22;5046671;28;20112;-64
2023/06/23 00:25:09;;;;;;;17.08;8.68;;;;;;;-142.75;100.00;76578.16;5046677;28;20082;-64
2023/06/23 00:27:38;;;;;;;14.82;8.63;;;;;;;-142.75;100.00;76586.03;5046645;28;20436;-64
2023/06/23 00:30:04;;;;;;;13.23;7.70;;;;;;;-142.75;100.00;76589.97;5047428;28;20021;-64
2023/06/23 00:32:29;;;;;;;14.15;9.05;;;;;;;-142.75;100.00;76576.19;5046763;28;20676;-64
2023/06/23 00:34:55;;;;;;;14.15;8.80;;;;;;;-142.75;100.00;76599.81;5046403;28;20021;-63
2023/06/23 00:37:20;;;;;;;16.83;8.88;;;;;;;-142.75;100.00;76586.03;5046691;28;20049;-64
2023/06/23 00:39:45;;;;;;;16.88;9.15;;;;;;;-142.75;100.00;76597.84;5046441;28;20114;-64
2023/06/23 00:42:11;;;;;;;14.77;9.05;;;;;;;-142.75;100.00;76593.91;5046936;28;20243;-64
2023/06/23 00:44:37;;;;;;;13.52;9.25;;;;;;;-142.75;100.00;76593.91;5046174;28;20572;-64
2023/06/23 00:47:04;;;;;;;14.50;9.27;;;;;;;-142.75;100.00;76613.59;5046643;28;20116;-64
2023/06/23 00:49:30;;;;;;;16.90;10.77;;;;;;;-142.75;100.00;76619.50;5045003;28;20021;-63
2023/06/23 00:51:58;;;;;;;16.75;10.77;;;;;;;-142.75;100.00;76605.72;5045803;28;20029;-63
2023/06/23 00:54:28;;;;;;;17.33;10.40;;;;;;;-142.75;100.00;76619.50;5045003;28;20035;-64
2023/06/23 00:56:58;;;;;;;21.25;10.55;;;;;;;-142.75;100.00;76617.53;5053469;28;20020;-63
2023/06/23 00:59:24;;;;;;;18.60;12.18;;;;;;;-142.75;100.00;76613.59;5065722;28;20033;-64
2023/06/23 01:01:50;;;;;;;17.88;11.48;;;;;;;-142.75;100.00;76609.66;5065733;28;20472;-64
2023/06/23 01:04:15;;;;;;;20.23;12.80;;;;;;;-142.75;100.00;76609.66;5065944;28;20035;-64
2023/06/23 01:06:54;;;;;;;19.23;12.50;;;;;;;-142.75;100.00;76605.72;5066037;28;20063;-64
2023/06/23 01:09:42;;;;;;;23.98;13.70;;;;;;;-142.75;100.00;76601.78;5065602;28;20032;-64
2023/06/23 01:12:19;;;;;;;23.90;14.80;;;;;;;-142.75;100.00;76601.78;5066091;28;20020;-63
2023/06/23 01:15:04;;;;;;;26.13;16.10;;;;;;;-142.75;100.00;76597.84;5065555;28;20111;-63
2023/06/23 01:17:38;;;;;;;24.80;16.10;;;;;;;-142.75;100.00;76595.88;5065765;28;20039;-65
2023/06/23 01:20:21;;;;;;;30.63;17.45;;;;;;;-142.75;100.00;76582.09;5064827;28;20132;-63
2023/06/23 01:23:04;;;;;;;32.40;18.05;;;;;;;-142.75;100.00;76586.03;5065116;28;20082;-63
2023/06/23 01:25:55;;;;;;;30.17;18.27;;;;;;;-142.75;100.00;76584.06;5065724;28;20095;-63
2023/06/23 01:28:32;;;;;;;36.70;21.40;;;;;;;-142.75;100.00;76574.22;5065320;28;20559;-64
2023/06/23 01:31:02;;;;;;;37.60;21.38;;;;;;;-142.75;100.00;76580.13;5065258;28;20036;-63
2023/06/23 01:33:37;;;;;;;38.15;21.35;;;;;;;-142.75;100.00;76582.09;5065120;28;20027;-63
2023/06/23 01:36:16;;;;;;;33.72;20.90;;;;;;;-142.75;100.00;76574.22;5065557;28;20023;-64
2023/06/23 01:38:48;;;;;;;41.92;21.45;;;;;;;-142.75;100.00;76572.25;5065513;28;20103;-63
2023/06/23 01:41:18;;;;;;;37.58;22.50;;;;;;;-142.75;100.00;76576.19;5064997;28;20031;-64
2023/06/23 01:43:48;;;;;;;39.75;22.55;;;;;;;-142.75;100.00;76570.28;5065676;28;20130;-64
2023/06/23 01:46:25;;;;;;;36.67;20.77;;;;;;;-142.75;100.00;76568.31;5065186;28;20483;-63
2023/06/23 01:48:57;;;;;;;36.95;22.20;;;;;;;-142.75;100.00;76576.19;5064899;28;20039;-63
2023/06/23 01:51:28;;;;;;;34.15;20.60;;;;;;;-142.75;100.00;76566.34;5065206;28;20044;-64
2023/06/23 01:53:54;;;;;;;35.92;21.05;;;;;;;-142.75;100.00;76572.25;5064757;28;20028;-63
2023/06/23 01:56:23;;;;;;;36.22;20.98;;;;;;;-142.75;100.00;76578.16;5063439;28;20020;-64
2023/06/23 01:58:50;;;;;;;35.67;21.98;;;;;;;-142.75;100.00;76584.06;5045047;28;20029;-64
2023/06/23 02:01:16;;;;;;;36.53;20.70;;;;;;;-142.75;100.00;76591.94;5044971;28;20029;-62
2023/06/23 02:03:42;;;;;;;35.75;20.25;;;;;;;-142.75;100.00;76593.91;5044634;28;20033;-64
2023/06/23 02:06:10;;;;;;;37.40;22.05;;;;;;;-142.75;100.00;76597.84;5045072;28;20029;-61
2023/06/23 02:08:36;;;;;;;33.58;20.70;;;;;;;-142.75;100.00;76589.97;5045124;28;20025;-63
2023/06/23 02:11:03;;;;;;;37.50;20.90;;;;;;;-142.75;100.00;76597.84;5045269;28;20029;-64
2023/06/23 02:13:29;;;;;;;36.97;20.30;;;;;;;-142.75;100.00;76597.84;5045568;28;20041;-63
2023/06/23 02:15:56;;;;;;;34.80;19.88;;;;;;;-142.75;100.00;76603.75;5044903;28;20526;-64
2023/06/23 02:18:24;;;;;;;34.95;20.10;;;;;;;-142.75;100.00;76597.84;5044964;28;20515;-61
2023/06/23 02:20:51;;;;;;;34.60;20.48;;;;;;;-142.75;100.00;76603.75;5044914;28;20044;-63
2023/06/23 02:23:18;;;;;;;33.03;19.08;;;;;;;-142.75;100.00;76603.75;5044565;28;20033;-64
2023/06/23 02:25:43;;;;;;;36.75;19.98;;;;;;;-142.75;100.00;76603.75;5050210;28;20560;-64
2023/06/23 02:28:11;;;;;;;38.67;19.17;;;;;;;-142.75;100.00;76603.75;5064867;28;20021;-63
2023/06/23 02:30:38;;;;;;;32.95;20.55;;;;;;;-142.75;100.00;76601.78;5065652;28;20031;-63
2023/06/23 02:33:04;;;;;;;38.38;19.50;;;;;;;-142.75;100.00;76597.84;5054351;28;20690;-63
2023/06/23 02:35:30;;;;;;;37.13;20.10;;;;;;;-142.75;100.00;76603.75;5048965;28;20025;-63
2023/06/23 02:37:59;;;;;;;33.83;19.85;;;;;;;-142.75;100.00;76595.88;5049854;28;20028;-63
2023/06/23 02:40:29;;;;;;;39.00;21.50;;;;;;;-142.75;100.00;76597.84;5068423;28;20029;-64
2023/06/23 02:43:26;;;;;;;36.58;21.60;;;;;;;-142.75;100.00;76586.03;5068843;28;20039;-61
2023/06/23 02:45:55;;;;;;;34.15;22.27;;;;;;;-142.75;100.00;76593.91;5068390;28;20063;-63
2023/06/23 02:48:29;;;;;;;39.05;20.92;;;;;;;-142.75;100.00;76595.88;5068331;28;20081;-64
2023/06/23 02:50:58;;;;;;;39.22;21.95;;;;;;;-142.75;100.00;76591.94;5068156;28;20024;-63
2023/06/23 02:53:26;;;;;;;37.88;22.23;;;;;;;-142.75;100.00;76591.94;5068070;28;20338;-63
2023/06/23 02:56:01;;;;;;;36.50;21.35;;;;;;;-142.75;100.00;76597.84;5068355;28;20024;-63
2023/06/23 02:58:28;;;;;;;37.13;22.33;;;;;;;-142.75;100.00;76595.88;5068353;28;20055;-63
2023/06/23 03:00:57;;;;;;;41.13;21.65;;;;;;;-142.75;100.00;76597.84;5049645;28;20064;-63
2023/06/23 03:03:22;;;;;;;36.08;22.13;;;;;;;-142.75;100.00;76603.75;5047904;28;20057;-63
2023/06/23 03:05:49;;;;;;;39.47;23.00;;;;;;;-142.75;100.00;76601.78;5048252;28;20058;-63
2023/06/23 03:08:15;;;;;;;39.35;22.60;;;;;;;-142.75;100.00;76617.53;5046702;28;20100;-63
2023/06/23 03:10:41;;;;;;;34.42;22.27;;;;;;;-142.75;100.00;76629.34;5048070;28;20024;-63
2023/06/23 03:13:08;;;;;;;37.40;22.08;;;;;;;-142.75;100.00;76635.25;5048552;28;20047;-62
2023/06/23 03:15:36;;;;;;;39.15;21.63;;;;;;;-142.75;100.00;76633.28;5047035;28;20692;-64
2023/06/23 03:18:07;;;;;;;38.38;22.05;;;;;;;-142.75;100.00;76621.47;5048352;28;20111;-60
2023/06/23 03:20:50;;;;;;;39.83;22.48;;;;;;;-142.75;100.00;76613.59;5047030;28;20017;-63
2023/06/23 03:23:17;;;;;;;39.75;23.92;;;;;;;-142.75;100.00;76633.28;5047557;28;20091;-63
2023/06/23 03:25:46;;;;;;;39.63;22.88;;;;;;;-142.75;100.00;76631.31;5047877;28;20039;-64
2023/06/23 03:28:17;;;;;;;39.33;22.55;;;;;;;-142.75;100.00;76633.28;5062642;28;20036;-63
2023/06/23 03:30:50;;;;;;;41.42;23.48;;;;;;;-142.75;100.00;76637.22;5067716;28;20377;-63
2023/06/23 03:33:22;;;;;;;37.40;21.40;;;;;;;-142.75;100.00;76649.03;5067190;28;20506;-62
2023/06/23 03:35:49;;;;;;;45.45;24.35;;;;;;;-142.75;100.00;76660.84;5067560;28;20032;-64
2023/06/23 03:38:19;;;;;;;37.40;22.42;;;;;;;-142.75;100.00;76649.03;5067378;28;20111;-62
2023/06/23 03:40:54;;;;;;;41.30;23.13;;;;;;;-142.75;100.00;76662.81;5067243;28;20036;-63
2023/06/23 03:43:41;;;;;;;38.70;22.13;;;;;;;-142.75;100.00;76649.03;5066982;28;20086;-63
2023/06/23 03:46:11;;;;;;;;;;;;;;;-142.75;100.00;76660.84;5067630;28;20028;-64
2023/06/23 03:48:39;;;;;;;38.67;21.70;;;;;;;-142.75;100.00;76670.69;5067425;28;19920;-63
2023/06/23 03:51:05;;;;;;;38.88;21.50;;;;;;;-142.75;100.00;76674.63;5067337;28;20032;-63
2023/06/23 03:53:32;;;;;;;39.22;22.85;;;;;;;-142.75;100.00;76676.59;5067412;28;20593;-63
2023/06/23 03:56:00;;;;;;;38.55;21.75;;;;;;;-142.75;100.00;76678.56;5067243;28;20036;-62
2023/06/23 03:58:27;;;;;;;40.83;21.17;;;;;;;-142.75;100.00;76672.66;5063666;28;20029;-63
2023/06/23 04:00:55;;;;;;;38.38;21.27;;;;;;;-142.75;100.00;76672.66;5047177;28;20047;-63
2023/06/23 04:03:22;;;;;;;38.90;21.08;;;;;;;-142.75;100.00;76676.59;5045470;28;20362;-63
2023/06/23 04:05:49;;;;;;;38.45;20.73;;;;;;;-142.75;100.00;76664.78;5047133;28;20028;-63
2023/06/23 04:08:18;;;;;;;38.47;20.15;;;;;;;-142.75;100.00;76660.84;5047140;28;20426;-63
2023/06/23 04:10:44;;;;;;;36.40;20.00;;;;;;;-142.75;100.00;76664.78;5041987;28;20424;-63
2023/06/23 04:13:12;;;;;;;33.78;19.63;;;;;;;-142.75;100.00;76666.75;5041211;28;20021;-63
2023/06/23 04:15:39;;;;;;;38.25;19.75;;;;;;;-142.75;100.00;76660.84;5046492;28;20021;-63
2023/06/23 04:18:07;;;;;;;34.15;20.65;;;;;;;-142.75;100.00;76664.78;5044759;28;20027;-64
2023/06/23 04:20:36;;;;;;;34.42;20.45;;;;;;;-142.75;100.00;76664.78;5045105;28;20092;-63
2023/06/23 04:23:04;;;;;;;37.42;20.42;;;;;;;-142.75;100.00;76672.66;5042129;28;20024;-63
2023/06/23 04:25:30;;;;;;;37.83;20.17;;;;;;;-142.75;100.00;76672.66;5043200;28;20082;-62
2023/06/23 04:28:03;;;;;;;37.70;20.02;;;;;;;-142.75;100.00;76652.97;5045335;28;20032;-64
2023/06/23 04:30:31;;;;;;;39.20;21.98;;;;;;;-142.75;100.00;76651.00;5044898;28;20507;-63
2023/06/23 04:32:56;;;;;;;41.95;21.85;;;;;;;-142.75;100.00;76660.84;5043890;28;20016;-62
2023/06/23 04:35:22;;;;;;;38.03;21.40;;;;;;;-142.75;100.00;76654.94;5044309;28;20094;-63
2023/06/23 04:37:52;;;;;;;41.80;22.63;;;;;;;-142.75;100.00;76637.22;5044988;28;20053;-63
2023/06/23 04:40:28;;;;;;;40.40;23.40;;;;;;;-142.75;100.00;76629.34;5043762;28;20112;-64
2023/06/23 04:42:58;;;;;;;38.97;22.55;;;;;;;-142.75;100.00;76625.41;5046398;28;20335;-62
2023/06/23 04:45:27;;;;;;;41.13;23.55;;;;;;;-142.75;100.00;76621.47;5046190;28;20271;-63
2023/06/23 04:47:57;;;;;;;38.80;22.05;;;;;;;-142.75;100.00;76621.47;5046274;28;20396;-62
2023/06/23 04:50:27;;;;;;;40.08;23.00;;;;;;;-142.75;100.00;76603.75;5046208;28;20028;-64
2023/06/23 04:52:55;;;;;;;46.92;24.85;;;;;;;-142.75;100.00;76609.66;5046099;28;20021;-63
2023/06/23 04:55:29;;;;;;;36.75;21.23;;;;;;;-142.75;100.00;76605.72;5046112;28;20412;-61
2023/06/23 04:57:57;;;;;;;36.25;21.38;;;;;;;-142.75;100.00;76601.78;5046347;28;20029;-63
2023/06/23 05:00:24;;;;;;;39.67;21.85;;;;;;;-142.75;100.00;76588.00;5044618;28;20044;-64
2023/06/23 05:02:52;;;;;;;38.90;21.50;;;;;;;-142.75;100.00;76568.31;5047041;28;20025;-63
2023/06/23 05:05:23;;;;;;;41.58;22.25;;;;;;;-142.75;100.00;76554.53;5045829;28;20062;-63
2023/06/23 05:07:50;;;;;;;40.03;22.00;;;;;;;-142.75;100.00;76558.47;5046110;28;20032;-64
2023/06/23 05:10:18;;;;;;;37.10;21.17;;;;;;;-142.75;100.00;76550.59;5045581;28;20033;-63
2023/06/23 05:12:46;;;;;;;39.00;21.15;;;;;;;-142.75;100.00;76544.69;5046424;28;20029;-62
2023/06/23 05:15:12;;;;;;;36.63;21.10;;;;;;;-142.75;100.00;76536.84;5043094;28;20032;-63
2023/06/23 05:17:38;;;;;;;35.58;20.60;;;;;;;-142.75;100.00;76523.06;5045625;28;20031;-63
2023/06/23 05:20:08;;;;;;;36.47;20.58;;;;;;;-142.75;100.00;76530.91;5045753;28;20230;-63
2023/06/23 05:22:35;;;;;;;40.15;20.92;;;;;;;-142.75;100.00;76525.03;5045694;28;20024;-59
2023/06/23 05:25:04;;;;;;;36.03;20.65;;;;;;;-142.75;100.00;76525.03;5045594;28;20043;-62
2023/06/23 05:27:31;;;;;;;36.33;20.38;;;;;;;-142.75;100.00;76527.00;5045855;28;20021;-62
2023/06/23 05:29:58;;;;;;;35.83;19.67;;;;;;;-142.75;100.00;76513.22;5045682;28;20028;-61
2023/06/23 05:32:26;;;;;;;32.42;18.73;;;;;;;-142.75;100.00;76509.28;5065510;28;20492;-62
2023/06/23 05:34:55;;;;;;;31.80;19.23;;;;;;;-142.75;100.00;76495.50;5065688;28;20028;-62
2023/06/23 05:37:23;;;;;;;36.45;20.30;;;;;;;-142.75;100.00;76495.50;5065317;28;20479;-61
2023/06/23 05:39:49;;;;;;;43.47;20.98;;;;;;;-142.75;100.00;76501.41;5052295;28;20296;-63
2023/06/23 05:42:15;;;;;;;30.55;18.05;;;;;;;-142.75;100.00;76491.56;5038141;28;20102;-62
2023/06/23 05:44:41;;;;;;;31.05;18.02;;;;;;;-142.75;100.00;76489.59;5045657;28;20496;-62
2023/06/23 05:47:10;;;;;;;29.85;18.02;;;;;;;-142.75;100.00;76481.72;5044933;28;20048;-63
2023/06/23 05:49:42;;;;;;;29.98;16.80;;;;;;;-142.75;100.00;76483.69;5042927;28;20052;-63
2023/06/23 05:52:13;;;;;;;27.15;15.80;;;;;;;-142.75;100.00;76495.50;5038138;28;20028;-63
2023/06/23 05:54:40;;;;;;;26.80;15.70;;;;;;;-142.75;100.00;76505.34;5043298;28;20025;-63
2023/06/23 05:57:10;;;;;;;27.83;14.85;;;;;;;-142.75;100.00;76495.50;5044251;28;20029;-63
2023/06/23 05:59:43;;;;;;;23.90;14.30;;;;;;;-142.75;100.00;76479.75;5043655;28;20031;-62
2023/06/23 06:02:18;;;;;;;25.98;15.13;;;;;;;-142.75;100.00;76471.88;5043260;28;20102;-63
2023/06/23 06:04:49;;;;;;;26.77;14.85;;;;;;;-142.75;100.00;76456.13;5054194;28;20024;-64
2023/06/23 06:07:15;;;;;;;25.50;14.30;;;;;;;-142.75;100.00;76473.84;5064975;28;20036;-63
2023/06/23 06:09:43;;;;;;;28.13;14.38;;;;;;;-142.75;100.00;76460.06;5065033;28;20477;-63
2023/06/23 06:12:10;;;;;;;23.45;13.77;;;;;;;-142.75;100.00;76444.31;5064833;28;20021;-63
2023/06/23 06:14:38;;;;;;;25.48;12.60;;;;;;;-142.75;100.00;76434.47;5061690;28;20032;-63
2023/06/23 06:17:07;;;;;;;29.27;13.75;;;;;;;-142.75;100.00;76428.56;5045206;28;20504;-64
2023/06/23 06:19:34;;;;;;;19.33;11.82;;;;;;;-142.75;100.00;76452.19;5044916;28;20029;-63
2023/06/23 06:22:01;;;;;;;15.90;8.38;;;;;;;-142.75;100.00;76469.91;5044165;28;20036;-63
2023/06/23 06:24:29;;;;;;;15.35;8.77;;;;;;;-142.75;100.00;76487.63;5043947;28;20846;-63
2023/06/23 06:26:56;;;;;;;16.27;9.48;;;;;;;-142.75;100.00;76489.59;5043364;28;20024;-64
2023/06/23 06:29:22;;;;;;;11.75;7.45;;;;;;;-142.75;100.00;76495.50;5043307;28;20100;-60
2023/06/23 06:31:50;;;;;;;15.38;7.63;;;;;;;-142.75;100.00;76485.66;5040464;28;20056;-63
2023/06/23 06:34:19;;;;;;;15.20;8.15;;;;;;;-142.75;100.00;76475.81;5042171;28;20021;-63
2023/06/23 06:36:46;;;;;;;15.85;8.40;;;;;;;-142.75;100.00;76479.75;5044045;28;20119;-64
2023/06/23 06:39:12;;;;;;;10.77;7.28;;;;;;;-142.75;100.00;76462.03;5041721;28;20033;-62
2023/06/23 06:41:40;;;;;;;9.73;6.18;;;;;;;-142.75;100.00;76462.03;5041393;28;20033;-62
2023/06/23 06:44:05;;;;;;;9.88;5.05;;;;;;;-142.75;100.00;76509.28;5040181;28;20106;-62
2023/06/23 06:46:32;;;;;;;10.27;6.03;;;;;;;-142.75;100.00;76491.56;5043145;28;20492;-64
2023/06/23 06:48:58;;;;;;;12.27;6.05;;;;;;;-142.75;100.00;76467.94;5040258;28;20033;-63
2023/06/23 06:51:25;;;;;;;12.25;6.00;;;;;;;-142.75;100.00;76450.22;5040776;28;20028;-63
2023/06/23 06:53:50;;;;;;;10.40;6.05;;;;;;;-142.75;100.00;76464.00;5040131;28;20033;-63
2023/06/23 06:56:17;;;;;;;9.57;5.57;;;;;;;-142.75;100.00;76434.47;5041800;28;20117;-63
2023/06/23 06:58:43;;;;;;;11.55;5.78;;;;;;;-142.75;100.00;76430.53;5041936;28;20029;-63
2023/06/23 07:01:09;;;;;;;11.05;6.05;;;;;;;-142.75;100.00;76436.44;5040172;28;20100;-63
2023/06/23 07:03:35;;;;;;;9.80;5.70;;;;;;;-142.75;100.00;76438.41;5042642;28;20051;-63
2023/06/23 07:06:00;;;;;;;8.43;4.72;;;;;;;-142.75;100.00;76416.75;5043296;28;20500;-63
2023/06/23 07:08:26;;;;;;;8.75;5.05;;;;;;;-142.75;100.00;76401.00;5043279;28;20100;-63
2023/06/23 07:10:51;;;;;;;8.15;5.00;;;;;;;-142.75;100.00;76397.06;5043531;28;20055;-63
2023/06/23 07:13:16;;;;;;;5.75;4.15;;;;;;;-142.75;100.00;76412.81;5041564;28;20056;-63
2023/06/23 07:15:42;;;;;;;8.07;5.15;;;;;;;-142.75;100.00;76428.56;5035941;28;20129;-63
2023/06/23 07:18:07;;;;;;;7.70;4.47;;;;;;;-142.75;100.00;76428.56;5041872;28;20061;-62
2023/06/23 07:20:32;;;;;;;7.40;4.50;;;;;;;-142.75;100.00;76408.88;5044790;28;20029;-63
2023/06/23 07:22:58;;;;;;;7.13;4.38;;;;;;;-142.75;100.00;76420.69;5046537;28;20040;-63
2023/06/23 07:25:23;;;;;;;6.18;4.10;;;;;;;-142.75;100.00;76412.81;5046874;28;20060;-63
2023/06/23 07:27:49;;;;;;;7.85;4.75;;;;;;;-142.75;100.00;76393.13;5047211;28;20029;-63
2023/06/23 07:30:14;;;;;;;5.78;3.92;;;;;;;-142.75;100.00;76373.44;5046915;28;20033;-63
2023/06/23 07:32:40;;;;;;;7.43;3.83;;;;;;;-142.75;100.00;76365.56;5047681;28;20100;-63
2023/06/23 07:35:06;;;;;;;8.45;4.50;;;;;;;-142.75;100.00;76351.81;5048449;28;20021;-62
2023/06/23 07:37:32;;;;;;;7.95;4.20;;;;;;;-142.75;100.00;76312.44;5049011;28;20393;-61
2023/06/23 07:39:57;;;;;;;8.02;3.83;;;;;;;-142.75;100.00;76328.19;5047035;28;20546;-63
2023/06/23 07:42:23;;;;;;;17.05;5.65;;;;;;;-142.75;100.00;76322.28;5047182;28;20025;-62
2023/06/23 07:44:49;;;;;;;219.02;32.42;;;;;;;-142.75;100.00;76310.47;5047989;28;20400;-62
2023/06/23 07:47:14;;;;;;;41.17;9.20;;;;;;;-142.75;100.00;76302.59;5046584;28;20025;-63
2023/06/23 07:49:40;;;;;;;8.27;4.07;;;;;;;-142.75;100.00;76306.53;5046896;28;20116;-62
2023/06/23 07:52:05;;;;;;;6.35;3.63;;;;;;;-142.75;100.00;76298.66;5047014;28;20373;-63
2023/06/23 07:54:31;;;;;;;5.80;4.18;;;;;;;-142.75;100.00;76284.88;5047307;28;20546;-64
2023/06/23 07:56:58;;;;;;;6.20;4.22;;;;;;;-142.75;100.00;76249.44;5045276;28;20541;-63
2023/06/23 07:59:26;;;;;;;8.63;4.43;;;;;;;-142.75;100.00;76233.69;5049227;28;20075;-64
2023/06/23 08:01:52;;;;;;;5.28;3.40;;;;;;;-142.75;100.00;76229.75;5046637;28;20028;-63
2023/06/23 08:04:18;;;;;;;7.22;3.75;;;;;;;-142.75;100.00;76225.81;5046978;28;20036;-64
2023/06/23 08:06:43;;;;;;;8.88;3.67;;;;;;;-142.75;100.00;76202.19;5046968;28;20021;-63
2023/06/23 08:09:09;;;;;;;5.47;3.40;;;;;;;-142.75;100.00;76204.16;5046818;28;20052;-63
2023/06/23 08:11:34;;;;;;;6.60;3.40;;;;;;;-142.75;100.00;76200.25;5047165;28;20115;-63
2023/06/23 08:14:02;;;;;;;5.70;3.30;;;;;;;-142.75;100.00;76215.97;5047792;28;20506;-63
2023/06/23 08:16:28;;;;;;;5.30;3.60;;;;;;;-142.75;100.00;76212.03;5046932;28;20063;-63
2023/06/23 08:18:53;;;;;;;4.70;3.03;;;;;;;-142.75;100.00;76196.31;5045976;28;20060;-63
2023/06/23 08:21:19;;;;;;;5.13;3.13;;;;;;;-142.75;100.00;76206.13;5046568;28;20111;-63
2023/06/23 08:23:45;;;;;;;5.05;2.85;;;;;;;-142.75;100.00;76196.31;5046446;28;20489;-64
2023/06/23 08:26:10;;;;;;;3.70;2.38;;;;;;;-142.75;100.00;76200.25;5047139;28;20025;-63
2023/06/23 08:28:36;;;;;;;5.50;2.30;;;;;;;-142.75;100.00;76204.16;5046802;28;20523;-63
2023/06/23 08:31:01;;;;;;;4.78;2.67;;;;;;;-142.75;100.00;76214.00;5047148;28;20035;-64
2023/06/23 08:33:27;;;;;;;3.65;2.53;;;;;;;-142.75;100.00;76219.91;5047306;28;20458;-63
2023/06/23 08:35:52;;;;;;;6.60;3.17;;;;;;;-142.75;100.00;76176.63;5046862;28;20076;-62
2023/06/23 08:38:18;;;;;;;5.65;3.25;;;;;;;-142.75;100.00;76160.88;5047752;28;20021;-63
2023/06/23 08:40:45;;;;;;;7.05;3.17;;;;;;;-142.75;100.00;76151.03;5047321;28;20033;-63
2023/06/23 08:43:11;;;;;;;4.38;2.65;;;;;;;-142.75;100.00;76139.22;5047521;28;20530;-63
2023/06/23 08:45:44;;;;;;;5.75;3.38;;;;;;;-142.75;100.00;76145.13;5046683;28;20028;-62
2023/06/23 08:48:10;;;;;;;4.65;2.95;;;;;;;-142.75;100.00;76153.00;5047559;28;20580;-63
2023/06/23 08:50:37;;;;;;;7.53;2.45;;;;;;;-142.75;100.00;76149.06;5047532;28;20021;-62
2023/06/23 08:53:05;;;;;;;4.38;2.75;;;;;;;-142.75;100.00;76121.50;5047578;28;20047;-61
2023/06/23 08:55:34;;;;;;;6.10;2.80;;;;;;;-142.75;100.00;76119.53;5047729;28;20025;-62
2023/06/23 08:58:03;;;;;;;6.70;2.88;;;;;;;-142.75;100.00;76103.78;5047595;28;20086;-62
2023/06/23 09:00:28;;;;;;;4.85;2.50;;;;;;;-142.75;100.00;76101.81;5047363;28;20116;-63
2023/06/23 09:02:55;;;;;;;4.78;2.83;;;;;;;-142.75;100.00;76078.19;5047050;28;20329;-62
2023/06/23 09:05:21;;;;;;;4.47;2.78;;;;;;;-142.75;100.00;76086.06;5047199;28;20029;-62
2023/06/23 09:07:47;;;;;;;4.53;2.78;;;;;;;-142.75;100.00;76062.47;5046834;28;20055;-62
2023/06/23 09:10:13;;;;;;;3.90;2.58;;;;;;;-142.75;100.00;76048.69;5045806;28;20751;-63
2023/06/23 09:12:50;;;;;;;5.45;3.25;;;;;;;-142.75;100.00;76029.00;5046331;28;20025;-61
2023/06/23 09:15:16;;;;;;;7.57;3.55;;;;;;;-142.75;100.00;76050.66;5046843;28;20484;-63
2023/06/23 09:17:44;;;;;;;5.70;3.70;;;;;;;-142.75;100.00;76046.72;5047009;28;20100;-62
2023/06/23 09:20:11;;;;;;;4.38;2.90;;;;;;;-142.75;100.00;76019.16;5046835;28;20021;-62
2023/06/23 09:22:36;;;;;;;5.70;2.72;;;;;;;-142.75;99.28;76042.78;5046324;28;20036;-61
2023/06/23 09:25:02;;;;;;;7.32;2.60;;;;;;;-142.75;99.39;76044.75;5046692;28;20033;-62
2023/06/23 09:27:42;;;;;;;4.47;2.58;;;;;;;-142.75;100.00;76030.97;5044652;28;20028;-62
2023/06/23 09:30:08;;;;;;;4.53;2.55;;;;;;;-142.75;93.18;76032.94;5046621;28;20029;-60
2023/06/23 09:32:33;;;;;;;3.38;2.47;;;;;;;-142.75;93.56;76060.50;5044910;28;20155;-61
2023/06/23 09:34:59;;;;;;;4.25;2.20;;;;;;;-142.75;89.64;76034.91;5043452;28;20380;-61
2023/06/23 09:37:25;;;;;;;3.42;2.20;;;;;;;-142.75;91.38;76015.22;5045230;28;20039;-62
2023/06/23 09:39:55;;;;;;;4.90;2.13;;;;;;;-142.75;87.16;76007.34;5044988;28;20028;-62
2023/06/23 09:42:22;;;;;;;5.47;2.20;;;;;;;-142.75;87.45;75995.53;5045512;28;20432;-62
2023/06/23 09:44:48;;;;;;;3.90;2.13;;;;;;;-142.75;84.96;76017.19;5046134;28;20021;-60
2023/06/23 09:47:18;;;;;;;3.35;1.92;;;;;;;-142.75;85.87;75979.78;5045986;28;20518;-61
2023/06/23 09:49:46;;;;;;;4.60;1.88;;;;;;;-142.75;87.45;75938.47;5045758;28;20036;-61
2023/06/23 09:52:14;;;;;;;4.32;2.08;;;;;;;-142.75;86.82;75936.50;5045389;28;20023;-61
2023/06/23 09:54:41;;;;;;;5.20;1.98;;;;;;;-142.75;87.34;75948.31;5045837;28;20052;-62
2023/06/23 09:57:13;;;;;;;3.85;2.15;;;;;;;-142.75;81.09;75934.53;5045773;28;20452;-60
2023/06/23 09:59:40;;;;;;;3.35;2.08;;;;;;;-142.75;84.18;75946.34;5046304;28;20028;-62
2023/06/23 10:02:07;;;;;;;4.70;2.28;;;;;;;-142.75;82.38;75950.28;5045670;28;20553;-63
2023/06/23 10:04:32;;;;;;;9.68;2.45;;;;;;;-142.75;85.89;75920.75;5046006;28;20078;-62
2023/06/23 10:06:58;;;;;;;2.75;1.77;;;;;;;-142.75;82.27;75893.19;5045689;28;20033;-61
2023/06/23 10:09:25;;;;;;;3.00;1.60;;;;;;;-142.75;79.66;75842.03;5045424;28;20196;-62
2023/06/23 10:11:51;;;;;;;6.35;2.00;;;;;;;-142.75;77.57;75881.38;5045922;28;20627;-62
2023/06/23 10:14:18;;;;;;;3.00;1.70;;;;;;;-142.75;79.50;75851.88;5045389;28;20017;-63
2023/06/23 10:16:44;;;;;;;5.15;2.15;;;;;;;-142.75;76.47;75845.97;5045769;28;20090;-62
2023/06/23 10:19:11;;;;;;;5.00;2.75;;;;;;;-142.75;79.10;75828.25;5045293;28;20021;-63
2023/06/23 10:21:36;;;;;;;3.47;2.08;;;;;;;-142.75;78.67;75857.78;5045262;28;20029;-62
2023/06/23 10:24:04;;;;;;;6.50;2.60;;;;;;;-142.75;78.65;75855.81;5046170;28;20112;-62
2023/06/23 10:26:34;;;;;;;4.35;1.90;;;;;;;-142.75;78.62;75849.91;5045518;28;20067;-62
2023/06/23 10:29:11;;;;;;;2.97;2.40;;;;;;;-142.75;78.91;75830.22;5045954;28;20022;-63
2023/06/23 10:31:37;;;;;;;3.33;1.98;;;;;;;-142.75;79.73;75842.03;5045815;28;20020;-62
2023/06/23 10:34:05;;;;;;;4.05;2.17;;;;;;;-142.75;82.13;75822.34;5044676;28;20476;-62
2023/06/23 10:36:31;;;;;;;4.63;2.38;;;;;;;-142.75;78.26;75838.09;5045280;28;20024;-63
2023/06/23 10:39:00;;;;;;;3.00;1.80;;;;;;;-142.75;80.45;75834.16;5045957;28;20025;-62
2023/06/23 10:41:27;;;;;;;3.67;2.25;;;;;;;-142.75;79.90;75802.66;5045483;28;20025;-62
2023/06/23 10:43:55;;;;;;;3.88;2.33;;;;;;;-142.75;78.03;75782.97;5045153;28;20534;-62
2023/06/23 10:46:24;;;;;;;3.25;2.08;;;;;;;-142.75;77.39;75767.22;5043595;28;20033;-63
2023/06/23 10:48:50;;;;;;;3.40;2.00;;;;;;;-142.75;78.17;75771.16;5045278;28;20025;-63
2023/06/23 10:51:16;;;;;;;3.55;2.38;;;;;;;-142.75;75.08;75788.88;5045622;28;20032;-63
2023/06/23 10:53:50;;;;;;;3.08;1.98;;;;;;;-142.75;74.89;75782.97;5048970;28;20019;-62
2023/06/23 10:56:37;;;;;;;4.45;1.92;;;;;;;-142.75;74.96;75759.38;5049086;28;20029;-62
2023/06/23 10:59:23;;;;;;;3.25;1.80;;;;;;;-142.75;76.27;75759.38;5048859;28;20028;-63
2023/06/23 11:02:08;;;;;;;5.32;2.30;;;;;;;-142.75;77.89;75751.50;5048979;28;20031;-64
2023/06/23 11:04:36;;;;;;;2.88;2.08;;;;;;;-142.75;76.60;75786.91;5049234;28;20117;-63
2023/06/23 11:07:15;;;;;;;4.93;2.42;;;;;;;-142.75;76.06;75773.13;5048893;28;20025;-62